createdAt,value
2018-09-18T00:00:56.541Z,15.90
2018-09-18T00:03:25.897Z,15.90
2018-09-18T00:05:54.860Z,15.80
2018-09-18T00:08:24.270Z,15.80
2018-09-18T00:10:53.196Z,15.70
2018-09-18T00:13:22.130Z,15.70
2018-09-18T00:15:51.021Z,15.60
2018-09-18T00:18:20.535Z,15.50
2018-09-18T00:20:49.434Z,15.60
2018-09-18T00:23:18.342Z,15.50
2018-09-18T00:25:47.271Z,15.50
2018-09-18T00:28:16.816Z,15.60
2018-09-18T00:30:45.716Z,15.50
2018-09-18T00:33:14.634Z,15.50
2018-09-18T00:35:43.556Z,15.40
2018-09-18T00:38:12.491Z,15.30
2018-09-18T00:40:41.661Z,15.20
2018-09-18T00:43:11.039Z,15.20
2018-09-18T00:45:40.468Z,15.10
2018-09-18T00:48:09.525Z,15.00
2018-09-18T00:50:38.444Z,15.10
2018-09-18T00:53:07.354Z,15.10
2018-09-18T00:55:36.678Z,15.10
2018-09-18T00:58:06.554Z,15.00
2018-09-18T01:00:36.156Z,15.00
2018-09-18T01:03:05.129Z,14.90
2018-09-18T01:05:34.035Z,14.90
2018-09-18T01:08:03.574Z,14.90
2018-09-18T01:10:32.580Z,14.90
2018-09-18T01:13:01.527Z,14.90
2018-09-18T01:15:30.500Z,14.90
2018-09-18T01:17:59.462Z,14.90
2018-09-18T01:20:28.368Z,15.00
2018-09-18T01:22:57.315Z,15.00
2018-09-18T01:25:26.194Z,15.00
2018-09-18T01:27:55.086Z,15.00
2018-09-18T01:30:24.064Z,14.90
2018-09-18T01:32:52.987Z,15.00
2018-09-18T01:35:22.583Z,15.00
2018-09-18T01:37:52.090Z,15.00
2018-09-18T01:40:21.133Z,15.00
2018-09-18T01:42:50.125Z,14.90
2018-09-18T01:45:19.098Z,14.80
2018-09-18T01:47:48.008Z,14.90
2018-09-18T01:50:16.927Z,14.80
2018-09-18T01:52:45.979Z,14.80
2018-09-18T01:55:14.936Z,14.80
2018-09-18T01:57:43.940Z,14.80
2018-09-18T02:00:12.883Z,14.80
2018-09-18T02:02:41.799Z,14.80
2018-09-18T02:05:10.761Z,14.70
2018-09-18T02:07:39.678Z,14.70
2018-09-18T02:10:08.954Z,14.70
2018-09-18T02:12:37.906Z,14.70
2018-09-18T02:15:06.890Z,14.70
2018-09-18T02:17:36.297Z,14.60
2018-09-18T02:20:05.556Z,14.60
2018-09-18T02:22:34.686Z,14.60
2018-09-18T02:25:03.706Z,14.70
2018-09-18T02:27:32.956Z,14.70
2018-09-18T02:30:01.841Z,14.70
2018-09-18T02:32:30.785Z,14.70
2018-09-18T02:34:59.735Z,14.60
2018-09-18T02:37:28.613Z,14.60
2018-09-18T02:39:57.552Z,14.50
2018-09-18T02:42:26.571Z,14.50
2018-09-18T02:44:55.530Z,14.50
2018-09-18T02:47:25.064Z,14.50
2018-09-18T02:49:54.096Z,14.50
2018-09-18T02:52:23.570Z,14.60
2018-09-18T02:54:52.500Z,14.50
2018-09-18T02:57:21.436Z,14.40
2018-09-18T02:59:50.373Z,14.40
2018-09-18T03:02:19.311Z,14.30
2018-09-18T03:04:48.235Z,14.40
2018-09-18T03:07:17.648Z,14.30
2018-09-18T03:09:46.519Z,14.30
2018-09-18T03:12:15.423Z,14.30
2018-09-18T03:14:44.341Z,14.30
2018-09-18T03:17:14.398Z,14.30
2018-09-18T03:19:44.756Z,14.30
2018-09-18T03:22:13.776Z,14.20
2018-09-18T03:24:43.107Z,14.10
2018-09-18T03:27:12.084Z,14.00
2018-09-18T03:29:40.986Z,14.10
2018-09-18T03:32:09.930Z,14.00
2018-09-18T03:34:38.832Z,13.90
2018-09-18T03:37:07.719Z,13.90
2018-09-18T03:39:36.674Z,13.90
2018-09-18T03:42:05.557Z,13.80
2018-09-18T03:44:34.480Z,13.90
2018-09-18T03:47:03.861Z,13.90
2018-09-18T03:49:32.826Z,13.90
2018-09-18T03:52:02.312Z,13.90
2018-09-18T03:54:31.278Z,13.90
2018-09-18T03:57:00.192Z,13.90
2018-09-18T03:59:29.359Z,13.80
2018-09-18T04:01:58.734Z,13.80
2018-09-18T04:04:29.185Z,13.80
2018-09-18T04:06:58.079Z,13.70
2018-09-18T04:09:27.388Z,13.70
2018-09-18T04:11:56.339Z,13.80
2018-09-18T04:14:25.313Z,13.80
2018-09-18T04:16:54.219Z,13.70
2018-09-18T04:19:23.160Z,13.70
2018-09-18T04:21:52.097Z,13.70
2018-09-18T04:24:22.056Z,13.60
2018-09-18T04:26:51.165Z,13.70
2018-09-18T04:29:21.039Z,13.80
2018-09-18T04:31:49.974Z,13.80
2018-09-18T04:34:18.871Z,13.90
2018-09-18T04:36:48.383Z,13.80
2018-09-18T04:39:17.299Z,13.80
2018-09-18T04:41:46.249Z,13.80
2018-09-18T04:44:15.766Z,13.90
2018-09-18T04:46:44.674Z,13.90
2018-09-18T04:49:13.617Z,13.90
2018-09-18T04:51:42.515Z,13.90
2018-09-18T04:54:11.441Z,14.10
2018-09-18T04:56:40.610Z,14.10
2018-09-18T04:59:09.580Z,14.10
2018-09-18T05:01:38.504Z,14.20
2018-09-18T05:04:07.472Z,14.40
2018-09-18T05:06:36.360Z,14.40
2018-09-18T05:09:07.884Z,14.60
2018-09-18T05:11:37.527Z,14.80
2018-09-18T05:14:06.709Z,15.10
2018-09-18T05:16:36.172Z,15.40
2018-09-18T05:19:05.299Z,15.50
2018-09-18T05:21:34.415Z,15.80
2018-09-18T05:24:03.902Z,16.10
2018-09-18T05:26:34.562Z,16.60
2018-09-18T05:29:03.918Z,17.10
2018-09-18T05:31:33.379Z,17.60
2018-09-18T05:34:02.820Z,18.30
2018-09-18T05:36:31.754Z,19.20
2018-09-18T05:39:01.154Z,19.90
2018-09-18T05:41:30.142Z,21.20
2018-09-18T05:43:59.113Z,22.40
2018-09-18T05:46:28.079Z,23.50
2018-09-18T05:48:57.004Z,23.90
2018-09-18T05:51:26.493Z,24.20
2018-09-18T05:53:55.778Z,24.30
2018-09-18T05:56:24.701Z,24.60
2018-09-18T05:58:54.386Z,25.60
2018-09-18T06:01:23.364Z,26.00
2018-09-18T06:03:52.381Z,26.90
2018-09-18T06:06:21.359Z,27.50
2018-09-18T06:08:50.405Z,27.20
2018-09-18T06:11:19.355Z,27.70
2018-09-18T06:13:48.331Z,27.70
2018-09-18T06:16:17.403Z,28.30
2018-09-18T06:18:46.602Z,28.50
2018-09-18T06:21:15.630Z,29.60
2018-09-18T06:23:44.548Z,30.40
2018-09-18T06:26:13.999Z,30.60
2018-09-18T06:28:43.304Z,30.40
2018-09-18T06:31:12.250Z,31.30
2018-09-18T06:33:41.176Z,31.90
2018-09-18T06:36:10.195Z,32.50
2018-09-18T06:38:39.140Z,33.20
2018-09-18T06:41:08.752Z,33.90
2018-09-18T06:43:37.657Z,33.70
2018-09-18T06:46:07.106Z,33.90
2018-09-18T06:48:36.058Z,34.00
2018-09-18T06:51:05.112Z,33.70
2018-09-18T06:53:35.065Z,33.00
2018-09-18T06:56:03.976Z,33.50
2018-09-18T06:58:32.910Z,33.90
2018-09-18T07:01:02.340Z,34.20
2018-09-18T07:03:31.323Z,34.30
2018-09-18T07:06:00.312Z,34.40
2018-09-18T07:08:29.278Z,33.40
2018-09-18T07:10:58.227Z,34.40
2018-09-18T07:13:28.250Z,35.10
2018-09-18T07:15:57.187Z,35.60
2018-09-18T07:18:26.133Z,35.80
2018-09-18T07:20:55.081Z,35.00
2018-09-18T07:23:24.096Z,35.60
2018-09-18T07:25:53.035Z,36.50
2018-09-18T07:28:22.674Z,37.30
2018-09-18T07:30:51.599Z,37.30
2018-09-18T07:33:21.203Z,37.80
2018-09-18T07:35:50.767Z,37.20
2018-09-18T07:38:19.644Z,37.60
2018-09-18T07:40:48.583Z,37.80
2018-09-18T07:43:17.509Z,38.40
2018-09-18T07:45:46.480Z,38.50
2018-09-18T07:48:15.606Z,38.80
2018-09-18T07:50:44.568Z,38.70
2018-09-18T07:53:13.510Z,38.50
2018-09-18T07:55:42.573Z,38.70
2018-09-18T07:58:11.495Z,38.30
2018-09-18T08:00:40.488Z,38.40
2018-09-18T08:03:09.586Z,38.10
2018-09-18T08:05:38.545Z,38.80
2018-09-18T08:08:07.541Z,39.10
2018-09-18T08:10:36.982Z,39.90
2018-09-18T08:13:06.315Z,40.90
2018-09-18T08:15:35.386Z,41.70
2018-09-18T08:18:04.357Z,41.60
2018-09-18T08:20:33.792Z,40.60
2018-09-18T08:23:02.796Z,41.40
2018-09-18T08:25:31.871Z,40.90
2018-09-18T08:28:01.357Z,40.20
2018-09-18T08:30:30.293Z,39.70
2018-09-18T08:32:59.340Z,39.30
2018-09-18T08:35:28.299Z,39.90
2018-09-18T08:37:57.613Z,39.70
2018-09-18T08:40:26.937Z,39.60
2018-09-18T08:42:56.074Z,39.70
2018-09-18T08:45:25.120Z,40.10
2018-09-18T08:47:54.025Z,39.00
2018-09-18T08:50:23.037Z,38.90
2018-09-18T08:52:52.564Z,39.80
2018-09-18T08:55:22.181Z,38.80
2018-09-18T08:57:51.118Z,38.80
2018-09-18T09:00:20.163Z,39.10
2018-09-18T09:02:49.060Z,39.10
2018-09-18T09:05:18.080Z,39.50
2018-09-18T09:07:47.078Z,39.20
2018-09-18T09:10:16.038Z,39.30
2018-09-18T09:12:45.592Z,38.60
2018-09-18T09:15:14.601Z,38.50
2018-09-18T09:17:43.530Z,37.90
2018-09-18T09:20:12.943Z,36.60
2018-09-18T09:22:41.962Z,35.10
2018-09-18T09:25:10.873Z,33.00
2018-09-18T09:27:40.465Z,32.10
2018-09-18T09:30:09.583Z,31.00
2018-09-18T09:32:38.501Z,30.00
2018-09-18T09:35:07.466Z,29.40
2018-09-18T09:37:36.397Z,29.20
2018-09-18T09:40:06.563Z,29.30
2018-09-18T09:42:35.467Z,29.10
2018-09-18T09:45:04.477Z,28.80
2018-09-18T09:47:33.516Z,28.40
2018-09-18T09:50:02.912Z,27.90
2018-09-18T09:52:31.844Z,27.90
2018-09-18T09:55:01.258Z,27.80
2018-09-18T09:57:30.176Z,27.80
2018-09-18T09:59:59.077Z,28.10
2018-09-18T10:02:29.690Z,28.20
2018-09-18T10:04:59.541Z,28.30
2018-09-18T10:07:28.434Z,28.30
2018-09-18T10:09:57.409Z,28.20
2018-09-18T10:12:26.287Z,28.10
2018-09-18T10:14:55.902Z,27.90
2018-09-18T10:17:24.810Z,27.80
2018-09-18T10:19:53.736Z,27.80
2018-09-18T10:22:23.305Z,27.70
2018-09-18T10:24:52.245Z,27.60
2018-09-18T10:27:21.253Z,27.60
2018-09-18T10:29:50.156Z,27.70
2018-09-18T10:32:19.123Z,28.00
2018-09-18T10:34:48.037Z,28.10
2018-09-18T10:37:17.053Z,28.30
2018-09-18T10:39:45.978Z,28.20
2018-09-18T10:42:15.022Z,28.10
2018-09-18T10:44:44.063Z,28.20
2018-09-18T10:47:12.952Z,28.30
2018-09-18T10:49:41.963Z,28.40
2018-09-18T10:52:10.896Z,28.50
2018-09-18T10:54:39.836Z,28.50
2018-09-18T10:57:09.427Z,28.40
2018-09-18T10:59:38.320Z,28.20
2018-09-18T11:02:07.667Z,28.30
2018-09-18T11:04:36.556Z,28.40
2018-09-18T11:07:05.875Z,28.20
2018-09-18T11:09:34.799Z,28.10
2018-09-18T11:12:03.790Z,28.20
2018-09-18T11:14:33.298Z,28.20
2018-09-18T11:17:03.150Z,28.30
2018-09-18T11:19:32.102Z,28.10
2018-09-18T11:22:01.071Z,28.10
2018-09-18T11:24:30.056Z,28.20
2018-09-18T11:26:59.076Z,28.30
2018-09-18T11:29:28.575Z,28.50
2018-09-18T11:31:57.576Z,28.50
2018-09-18T11:34:27.077Z,28.40
2018-09-18T11:36:56.035Z,28.50
2018-09-18T11:39:25.017Z,28.60
2018-09-18T11:41:53.946Z,28.60
2018-09-18T11:44:23.965Z,28.60
2018-09-18T11:46:52.954Z,28.60
2018-09-18T11:49:22.016Z,28.70
2018-09-18T11:51:50.971Z,28.70
2018-09-18T11:54:20.093Z,28.70
2018-09-18T11:56:49.023Z,28.50
2018-09-18T11:59:18.965Z,28.40
2018-09-18T12:01:48.060Z,28.30
2018-09-18T12:04:17.184Z,28.30
2018-09-18T12:06:46.128Z,28.30
2018-09-18T12:09:15.311Z,28.20
2018-09-18T12:11:44.196Z,28.20
2018-09-18T12:14:13.701Z,28.10
2018-09-18T12:16:42.744Z,28.20
2018-09-18T12:19:12.276Z,28.40
2018-09-18T12:21:41.216Z,28.20
2018-09-18T12:24:10.262Z,28.40
2018-09-18T12:26:39.202Z,28.60
2018-09-18T12:29:08.139Z,28.70
2018-09-18T12:31:37.214Z,28.80
2018-09-18T12:34:06.197Z,28.90
2018-09-18T12:36:35.203Z,28.80
2018-09-18T12:39:06.166Z,28.80
2018-09-18T12:41:35.128Z,28.80
2018-09-18T12:44:04.123Z,28.70
2018-09-18T12:46:33.961Z,28.70
2018-09-18T12:49:03.507Z,28.60
2018-09-18T12:51:32.407Z,28.50
2018-09-18T12:54:01.411Z,28.40
2018-09-18T12:56:30.955Z,28.50
2018-09-18T12:59:00.011Z,28.50
2018-09-18T13:01:28.860Z,28.40
2018-09-18T13:03:57.815Z,28.40
2018-09-18T13:06:26.892Z,28.30
2018-09-18T13:08:56.142Z,28.20
2018-09-18T13:11:25.142Z,28.30
2018-09-18T13:13:54.718Z,28.40
2018-09-18T13:16:23.690Z,28.50
2018-09-18T13:18:52.844Z,28.50
2018-09-18T13:21:21.840Z,28.40
2018-09-18T13:23:50.756Z,28.30
2018-09-18T13:26:20.690Z,28.30
2018-09-18T13:28:49.640Z,28.30
2018-09-18T13:31:18.544Z,28.30
2018-09-18T13:33:47.530Z,28.20
2018-09-18T13:36:16.503Z,28.30
2018-09-18T13:38:45.431Z,28.20
2018-09-18T13:41:14.832Z,28.20
2018-09-18T13:43:43.827Z,28.20
2018-09-18T13:46:12.837Z,28.20
2018-09-18T13:48:41.748Z,28.20
2018-09-18T13:51:10.669Z,28.10
2018-09-18T13:53:39.674Z,28.10
2018-09-18T13:56:08.682Z,28.20
2018-09-18T13:58:37.657Z,28.10
2018-09-18T14:01:06.701Z,28.10
2018-09-18T14:03:35.624Z,28.10
2018-09-18T14:06:04.600Z,28.20
2018-09-18T14:08:33.560Z,28.20
2018-09-18T14:11:02.958Z,28.20
2018-09-18T14:13:31.960Z,28.20
2018-09-18T14:16:00.873Z,28.20
2018-09-18T14:18:44.279Z,28.10
2018-09-18T14:21:13.230Z,28.10
2018-09-18T14:23:42.164Z,28.10
2018-09-18T14:26:11.455Z,28.00
2018-09-18T14:28:41.516Z,28.00
2018-09-18T14:31:10.464Z,27.90
2018-09-18T14:33:39.430Z,27.80
2018-09-18T14:36:09.036Z,27.90
2018-09-18T14:38:38.082Z,27.90
2018-09-18T14:41:07.067Z,27.90
2018-09-18T14:43:35.988Z,27.90
2018-09-18T14:46:05.552Z,27.90
2018-09-18T14:48:34.513Z,27.90
2018-09-18T14:51:03.447Z,28.00
2018-09-18T14:53:32.706Z,28.00
2018-09-18T14:56:02.731Z,27.90
2018-09-18T14:58:31.676Z,27.80
2018-09-18T15:01:00.860Z,27.90
2018-09-18T15:03:30.324Z,27.90
2018-09-18T15:05:59.271Z,27.90
2018-09-18T15:08:28.216Z,27.90
2018-09-18T15:10:57.154Z,27.80
2018-09-18T15:13:26.101Z,27.80
2018-09-18T15:15:55.030Z,27.70
2018-09-18T15:18:23.982Z,27.70
2018-09-18T15:20:52.909Z,27.70
2018-09-18T15:23:22.356Z,27.60
2018-09-18T15:25:51.268Z,27.60
2018-09-18T15:28:20.255Z,27.60
2018-09-18T15:30:49.201Z,27.60
2018-09-18T15:33:18.083Z,27.60
2018-09-18T15:35:47.068Z,27.60
2018-09-18T15:38:16.239Z,27.50
2018-09-18T15:40:46.255Z,27.50
2018-09-18T15:43:16.143Z,27.50
2018-09-18T15:45:45.151Z,27.40
2018-09-18T15:48:14.850Z,27.40
2018-09-18T15:50:43.808Z,27.50
2018-09-18T15:53:12.758Z,27.40
2018-09-18T15:55:41.895Z,27.30
2018-09-18T15:58:10.964Z,27.20
2018-09-18T16:00:39.866Z,27.30
2018-09-18T16:03:08.811Z,27.20
2018-09-18T16:05:37.822Z,27.10
2018-09-18T16:08:06.797Z,27.00
2018-09-18T16:10:35.706Z,27.00
2018-09-18T16:13:04.666Z,26.90
2018-09-18T16:18:02.966Z,26.80
2018-09-18T16:20:31.905Z,26.70
2018-09-18T16:23:01.121Z,26.60
2018-09-18T16:25:30.105Z,26.50
2018-09-18T16:27:59.022Z,26.50
2018-09-18T16:30:27.980Z,26.40
2018-09-18T16:32:56.976Z,26.30
2018-09-18T16:35:25.916Z,26.10
2018-09-18T16:37:54.849Z,26.10
2018-09-18T16:40:23.949Z,26.00
2018-09-18T16:42:53.460Z,25.90
2018-09-18T16:45:23.004Z,25.90
2018-09-18T16:47:51.915Z,25.80
2018-09-18T16:50:20.941Z,25.60
2018-09-18T16:52:49.897Z,25.60
2018-09-18T16:55:18.839Z,25.50
2018-09-18T16:57:47.730Z,25.40
2018-09-18T17:00:17.183Z,25.40
2018-09-18T17:02:46.127Z,25.20
2018-09-18T17:05:15.062Z,25.10
2018-09-18T17:07:44.012Z,25.10
2018-09-18T17:10:13.477Z,25.00
2018-09-18T17:12:42.998Z,24.90
2018-09-18T17:15:11.964Z,24.90
2018-09-18T17:17:41.471Z,24.80
2018-09-18T17:20:10.401Z,24.70
2018-09-18T17:22:39.416Z,24.60
2018-09-18T17:25:08.385Z,24.60
2018-09-18T17:27:38.224Z,24.50
2018-09-18T17:30:07.561Z,24.50
2018-09-18T17:32:36.475Z,24.40
2018-09-18T17:35:06.217Z,24.30
2018-09-18T17:37:35.384Z,24.20
2018-09-18T17:40:04.523Z,24.20
2018-09-18T17:42:33.491Z,24.10
2018-09-18T17:45:02.512Z,24.00
2018-09-18T17:47:34.838Z,23.90
2018-09-18T17:50:03.909Z,23.90
2018-09-18T17:52:32.842Z,23.80
2018-09-18T17:55:01.989Z,23.70
2018-09-18T17:57:31.224Z,23.60
2018-09-18T18:00:00.136Z,23.50
2018-09-18T18:02:29.161Z,23.40
2018-09-18T18:04:58.063Z,23.40
2018-09-18T18:07:27.254Z,23.30
2018-09-18T18:09:56.199Z,23.20
2018-09-18T18:12:25.168Z,23.10
2018-09-18T18:14:54.109Z,23.10
2018-09-18T18:17:23.353Z,23.10
2018-09-18T18:19:52.265Z,23.00
2018-09-18T18:22:21.799Z,23.00
2018-09-18T18:24:51.160Z,22.80
2018-09-18T18:27:20.087Z,22.70
2018-09-18T18:29:49.041Z,22.70
2018-09-18T18:32:18.208Z,22.70
2018-09-18T18:34:47.143Z,22.70
2018-09-18T18:37:16.088Z,22.70
2018-09-18T18:39:45.052Z,22.60
2018-09-18T18:42:13.962Z,22.60
2018-09-18T18:44:43.444Z,22.60
2018-09-18T18:47:12.388Z,22.60
2018-09-18T18:52:17.768Z,22.60
2018-09-18T18:54:47.254Z,22.60
2018-09-18T18:57:16.176Z,22.60
2018-09-18T18:59:45.107Z,22.60
2018-09-18T19:02:14.078Z,22.60
2018-09-18T19:04:43.525Z,22.60
2018-09-18T19:07:12.626Z,22.50
2018-09-18T19:09:41.545Z,22.50
2018-09-18T19:12:10.534Z,22.50
2018-09-18T19:14:39.468Z,22.50
2018-09-18T19:17:08.845Z,22.40
2018-09-18T19:19:37.743Z,22.40
2018-09-18T19:22:06.975Z,22.40
2018-09-18T19:24:37.599Z,22.30
2018-09-18T19:27:06.895Z,22.30
2018-09-18T19:29:35.799Z,22.30
2018-09-18T19:32:04.769Z,22.40
2018-09-18T19:34:34.219Z,22.40
2018-09-18T19:37:03.246Z,22.40
2018-09-18T19:39:32.139Z,22.30
2018-09-18T19:42:01.114Z,22.20
2018-09-18T19:44:30.612Z,22.10
2018-09-18T19:46:59.655Z,22.10
2018-09-18T19:49:28.645Z,22.00
2018-09-18T19:51:58.236Z,21.80
2018-09-18T19:54:27.167Z,21.80
2018-09-18T19:56:56.080Z,21.70
2018-09-18T19:59:25.144Z,21.70
2018-09-18T20:01:55.248Z,21.70
2018-09-18T20:04:24.257Z,21.70
2018-09-18T20:06:53.210Z,21.60
2018-09-18T20:09:22.249Z,21.50
2018-09-18T20:11:51.114Z,21.50
2018-09-18T20:14:20.029Z,21.40
2018-09-18T20:16:49.003Z,21.40
2018-09-18T20:19:18.929Z,21.40
2018-09-18T20:21:48.113Z,21.40
2018-09-18T20:24:17.033Z,21.30
2018-09-18T20:26:45.984Z,21.30
2018-09-18T20:29:14.908Z,21.20
2018-09-18T20:31:43.967Z,21.10
2018-09-18T20:34:14.767Z,21.00
2018-09-18T20:36:44.374Z,21.00
2018-09-18T20:39:13.363Z,21.00
2018-09-18T20:41:42.484Z,20.90
2018-09-18T20:44:11.355Z,20.90
2018-09-18T20:46:41.606Z,20.90
2018-09-18T20:49:12.968Z,20.80
2018-09-18T20:51:43.344Z,20.70
2018-09-18T20:54:14.073Z,20.60
2018-09-18T20:56:44.909Z,20.60
2018-09-18T20:59:14.004Z,20.60
2018-09-18T21:01:43.212Z,20.50
2018-09-18T21:04:12.315Z,20.40
2018-09-18T21:06:41.430Z,20.40
2018-09-18T21:09:11.203Z,20.40
2018-09-18T21:11:41.450Z,20.30
2018-09-18T21:14:10.907Z,20.20
2018-09-18T21:16:40.367Z,20.10
2018-09-18T21:19:09.820Z,20.10
2018-09-18T21:21:39.886Z,20.00
2018-09-18T21:24:08.811Z,20.00
2018-09-18T21:26:38.178Z,20.00
2018-09-18T21:29:07.612Z,20.00
2018-09-18T21:31:37.244Z,20.10
2018-09-18T21:34:06.178Z,20.10
2018-09-18T21:36:35.986Z,20.00
2018-09-18T21:39:08.703Z,20.10
2018-09-18T21:41:38.664Z,20.00
2018-09-18T21:44:08.329Z,19.90
2018-09-18T21:46:38.446Z,19.90
2018-09-18T21:49:07.820Z,19.90
2018-09-18T21:51:37.346Z,20.00
2018-09-18T21:54:07.051Z,19.90
2018-09-18T21:56:36.350Z,19.90
2018-09-18T21:59:05.474Z,19.80
2018-09-18T22:01:34.379Z,19.80
2018-09-18T22:04:03.800Z,19.70
2018-09-18T22:06:32.829Z,19.60
2018-09-18T22:09:01.913Z,19.60
2018-09-18T22:11:30.810Z,19.60
2018-09-18T22:14:00.143Z,19.60
2018-09-18T22:16:29.980Z,19.60
2018-09-18T22:18:59.302Z,19.50
2018-09-18T22:21:28.184Z,19.50
2018-09-18T22:23:57.667Z,19.60
2018-09-18T22:26:26.578Z,19.60
2018-09-18T22:28:55.431Z,19.50
2018-09-18T22:31:24.323Z,19.40
2018-09-18T22:33:53.190Z,19.40
2018-09-18T22:36:22.270Z,19.40
2018-09-18T22:38:51.437Z,19.40
2018-09-18T22:41:20.355Z,19.30
2018-09-18T22:43:49.249Z,19.30
2018-09-18T22:46:18.418Z,19.20
2018-09-18T22:48:47.306Z,19.20
2018-09-18T22:51:16.269Z,19.20
2018-09-18T22:53:45.157Z,19.30
2018-09-18T22:56:14.053Z,19.20
2018-09-18T22:58:43.473Z,19.20
2018-09-18T23:01:12.363Z,19.20
2018-09-18T23:03:41.392Z,19.20
2018-09-18T23:06:10.345Z,19.10
2018-09-18T23:08:39.391Z,19.20
2018-09-18T23:11:08.384Z,19.10
2018-09-18T23:13:37.313Z,19.10
2018-09-18T23:16:06.322Z,19.00
2018-09-18T23:18:35.301Z,19.10
2018-09-18T23:21:04.283Z,19.00
2018-09-18T23:23:33.212Z,19.00
2018-09-18T23:26:02.622Z,18.90
2018-09-18T23:28:31.602Z,18.90
2018-09-18T23:31:00.499Z,18.90
2018-09-18T23:33:29.422Z,18.80
2018-09-18T23:35:58.327Z,18.90
2018-09-18T23:38:27.846Z,18.90
2018-09-18T23:40:56.756Z,18.90
2018-09-18T23:43:25.637Z,18.80
2018-09-18T23:45:54.871Z,18.90
2018-09-18T23:48:23.842Z,18.90
2018-09-18T23:50:52.780Z,18.90
2018-09-18T23:53:22.583Z,19.00
2018-09-18T23:55:52.105Z,19.00
2018-09-18T23:58:21.143Z,18.90
